< < Back
Terminal Aerodrome Forecast


Current Version              Previous Versions:   1  2  3  4  5  6  7  8  9  

Terminal Aerodrome Forecast

438
FTUS42 KFFC 261950 AAA
TAFATL
TAF AMD
KATL 261950Z 2620/2724 29015G25KT P6SM SCT050
     FM270000 32012KT P6SM SCT080
     FM270600 35008KT P6SM SCT100
     FM271500 35012KT P6SM SCT045=

Latest METAR

179
SAUS70 KWBC 262100 RRD
MTRATL
METAR KATL 262052Z 28012G21KT 10SM SCT065 BKN250 27/13 A2967 RMK AO2
SLP037 T02670128 55003


USA.gov is the U.S. government's official web portal to all federal, state and local government web resources and services.